Time;durP1;ratioP1;P1;durP2;ratioP2;P2;SDS_P1;SDS_P2;PMS_P1;PMS_P2;Temp;Humidity;BMP_temperature;BMP_pressure;BME280_temperature;BME280_humidity;BME280_pressure;Samples;Min_cycle;Max_cycle;Signal;HPM_P1;HPM_P2
2022/06/19 00:01:40;;;;;;;;;28.00;27.00;;;;;24.28;53.74;100616.47;110266;1264;18796;-48
2022/06/19 00:04:07;;;;;;;;;29.00;26.00;;;;;24.28;53.54;100612.46;110286;1264;22929;-48
2022/06/19 00:06:35;;;;;;;;;25.50;24.50;;;;;24.29;53.38;100614.44;110277;1264;20640;-47
2022/06/19 00:09:02;;;;;;;;;26.00;25.33;;;;;24.28;53.38;100617.52;110251;1264;18949;-48
2022/06/19 00:11:29;;;;;;;;;27.00;26.00;;;;;24.27;53.43;100615.33;110293;1264;25176;-50
2022/06/19 00:13:56;;;;;;;;;27.33;26.67;;;;;24.25;53.28;100618.69;110259;1264;19047;-47
2022/06/19 00:16:24;;;;;;;;;25.67;23.00;;;;;24.25;53.53;100621.80;110197;1264;18883;-47
2022/06/19 00:18:51;;;;;;;;;24.33;23.33;;;;;24.25;53.39;100622.70;110218;1265;19459;-47
2022/06/19 00:21:18;;;;;;;;;25.00;23.67;;;;;24.24;53.39;100632.36;110276;1264;19239;-50
2022/06/19 00:23:46;;;;;;;;;28.00;25.00;;;;;24.22;53.20;100636.20;110277;1262;18719;-48
2022/06/19 00:26:13;;;;;;;;;23.00;22.33;;;;;24.22;53.20;100638.86;110310;1264;22017;-48
2022/06/19 00:28:41;;;;;;;;;25.67;24.67;;;;;24.22;53.24;100646.15;110267;1265;18820;-49
2022/06/19 00:31:08;;;;;;;;;25.33;23.33;;;;;24.20;53.10;100650.56;110288;1264;20495;-47
2022/06/19 00:33:35;;;;;;;;;22.67;21.33;;;;;24.17;53.26;100656.60;110314;1264;20859;-48
2022/06/19 00:36:02;;;;;;;;;22.33;21.67;;;;;24.14;53.40;100657.77;110299;1265;20443;-48
2022/06/19 00:38:30;;;;;;;;;24.33;21.33;;;;;24.13;53.15;100658.09;110317;1264;18832;-48
2022/06/19 00:40:57;;;;;;;;;25.00;24.00;;;;;24.10;53.39;100656.73;110279;1265;19623;-48
2022/06/19 00:43:24;;;;;;;;;23.33;22.33;;;;;24.07;53.41;100662.31;110276;1264;18765;-48
2022/06/19 00:45:51;;;;;;;;;27.00;26.00;;;;;24.07;53.51;100660.58;110256;1264;20053;-51
2022/06/19 00:48:19;;;;;;;;;26.00;24.33;;;;;24.04;53.77;100652.31;110240;1264;19569;-48
2022/06/19 00:50:46;;;;;;;;;27.67;26.00;;;;;24.04;53.92;100650.63;110288;1264;19666;-51
2022/06/19 00:53:13;;;;;;;;;31.00;27.50;;;;;24.05;54.04;100649.25;110293;1264;19049;-48
2022/06/19 00:55:40;;;;;;;;;26.33;25.67;;;;;24.05;54.19;100646.42;110269;1264;19840;-48
2022/06/19 00:58:08;;;;;;;;;27.33;27.33;;;;;24.04;54.30;100645.91;110287;1264;22013;-48
2022/06/19 01:00:36;;;;;;;;;34.50;31.00;;;;;24.03;54.34;100640.60;110313;1264;18929;-48
2022/06/19 01:03:04;;;;;;;;;26.00;26.00;;;;;24.01;54.71;100638.85;110277;1264;19796;-50
2022/06/19 01:05:31;;;;;;;;;27.00;26.00;;;;;24.00;54.78;100637.12;110314;1264;19057;-50
2022/06/19 01:07:58;;;;;;;;;31.00;28.50;;;;;23.98;54.80;100634.88;110314;1265;18998;-48
2022/06/19 01:10:25;;;;;;;;;29.67;28.00;;;;;23.96;54.92;100633.98;110279;1264;19479;-50
2022/06/19 01:12:53;;;;;;;;;28.00;27.33;;;;;23.95;55.00;100632.29;110271;1265;19054;-52
2022/06/19 01:15:20;;;;;;;;;30.67;29.33;;;;;23.96;54.88;100628.20;110208;1265;18781;-48
2022/06/19 01:17:47;;;;;;;;;27.67;27.67;;;;;23.96;54.95;100620.13;110290;1265;19691;-50
2022/06/19 01:20:15;;;;;;;;;30.67;29.33;;;;;23.96;54.99;100611.40;110308;1264;18842;-50
2022/06/19 01:22:42;;;;;;;;;32.00;31.00;;;;;23.94;54.99;100606.16;110259;1265;19004;-53
2022/06/19 01:25:10;;;;;;;;;33.00;32.00;;;;;23.95;55.16;100601.88;110264;1264;19720;-49
2022/06/19 01:30:22;;;;;;;;;31.00;30.67;;;;;23.96;55.21;100595.69;110285;1264;25080;-48
2022/06/19 01:32:49;;;;;;;;;31.00;30.00;;;;;23.94;55.02;100600.35;110301;1265;22043;-48
2022/06/19 01:35:16;;;;;;;;;32.00;31.33;;;;;23.89;55.10;100599.36;110315;1264;18999;-50
2022/06/19 01:37:44;;;;;;;;;35.00;34.67;;;;;23.88;54.94;100604.10;110288;1264;18714;-49
2022/06/19 01:40:11;;;;;;;;;36.33;35.00;;;;;23.87;55.17;100602.88;110281;1265;22434;-48
2022/06/19 01:42:39;;;;;;;;;36.00;32.00;;;;;23.87;55.24;100605.32;110281;1264;18769;-48
2022/06/19 01:45:07;;;;;;;;;35.33;32.67;;;;;23.85;55.39;100607.55;110288;1264;19033;-49
2022/06/19 01:47:34;;;;;;;;;35.67;33.67;;;;;23.84;55.56;100611.52;110288;1264;19593;-49
2022/06/19 01:50:01;;;;;;;;;32.00;31.33;;;;;23.84;55.72;100615.95;110250;1263;19057;-48
2022/06/19 01:52:28;;;;;;;;;36.00;35.50;;;;;23.83;55.87;100613.20;110260;1264;19019;-48
2022/06/19 01:54:56;;;;;;;;;33.33;32.67;;;;;23.84;56.05;100611.80;110161;1264;19479;-47
2022/06/19 01:57:23;;;;;;;;;35.67;33.67;;;;;23.84;56.09;100610.08;110291;1265;19037;-48
2022/06/19 01:59:50;;;;;;;;;35.33;34.00;;;;;23.84;56.07;100614.83;110282;1264;21519;-51
2022/06/19 02:02:18;;;;;;;;;38.67;36.00;;;;;23.83;56.18;100612.58;110315;1264;19475;-48
2022/06/19 02:04:45;;;;;;;;;37.50;34.00;;;;;23.82;56.15;100605.17;110262;1264;22723;-50
2022/06/19 02:07:12;;;;;;;;;34.50;34.50;;;;;23.81;56.22;100606.80;110242;1264;18990;-49
2022/06/19 02:09:39;;;;;;;;;35.00;33.00;;;;;23.82;56.09;100601.46;110205;1264;19610;-50
2022/06/19 02:12:07;;;;;;;;;36.00;33.67;;;;;23.79;56.16;100596.10;110255;1265;19089;-52
2022/06/19 02:14:36;;;;;;;;;36.67;34.00;;;;;23.78;56.20;100596.77;110360;1264;21857;-48
2022/06/19 02:17:03;;;;;;;;;35.00;34.00;;;;;23.81;56.02;100591.73;110202;1262;19659;-47
2022/06/19 02:19:31;;;;;;;;;35.00;33.67;;;;;23.81;55.93;100587.90;110228;1264;18739;-48
2022/06/19 02:21:58;;;;;;;;;32.33;31.67;;;;;23.80;55.95;100586.84;110275;1264;20137;-49
2022/06/19 02:24:26;;;;;;;;;32.00;32.00;;;;;23.80;55.89;100581.83;110289;1264;20134;-48
2022/06/19 02:26:54;;;;;;;;;32.67;31.33;;;;;23.80;55.87;100576.57;110284;1264;18806;-49
2022/06/19 02:29:21;;;;;;;;;35.00;32.33;;;;;23.80;55.80;100578.91;110292;1264;18862;-48
2022/06/19 02:31:48;;;;;;;;;34.33;30.67;;;;;23.78;55.82;100580.95;110264;1264;19695;-48
2022/06/19 02:34:17;;;;;;;;;32.00;31.33;;;;;23.76;55.81;100580.27;110258;1264;19002;-50
2022/06/19 02:36:44;;;;;;;;;35.33;33.67;;;;;23.75;55.73;100585.20;110301;1265;20352;-49
2022/06/19 02:39:11;;;;;;;;;31.00;31.00;;;;;23.75;56.03;100584.82;110319;1264;19628;-50
2022/06/19 02:41:44;;;;;;;;;40.00;37.33;;;;;23.74;56.00;100586.76;110333;1264;18797;-48
2022/06/19 02:44:12;;;;;;;;;32.00;32.00;;;;;23.73;55.98;100590.34;110279;1264;18760;-51
2022/06/19 02:46:39;;;;;;;;;34.67;33.00;;;;;23.73;56.14;100588.23;110292;1264;22966;-50
2022/06/19 02:49:06;;;;;;;;;34.00;31.50;;;;;23.72;56.08;100577.73;110282;1264;18679;-48
2022/06/19 02:51:34;;;;;;;;;35.67;29.67;;;;;23.71;56.32;100573.77;110217;1265;20215;-49
2022/06/19 02:54:01;;;;;;;;;35.00;33.50;;;;;23.71;56.16;100563.45;110294;1264;22766;-53
2022/06/19 02:56:29;;;;;;;;;34.00;33.00;;;;;23.69;56.09;100559.77;110321;1264;18908;-49
2022/06/19 02:58:56;;;;;;;;;33.33;32.67;;;;;23.70;56.12;100556.03;110272;1264;19254;-49
2022/06/19 03:01:24;;;;;;;;;34.33;32.33;;;;;23.70;56.06;100555.66;110250;1264;19562;-50
2022/06/19 03:03:51;;;;;;;;;35.33;31.00;;;;;23.67;56.22;100556.79;110306;1265;18682;-50
2022/06/19 03:06:18;;;;;;;;;35.67;33.33;;;;;23.65;56.27;100558.70;110292;1264;20781;-49
2022/06/19 03:08:46;;;;;;;;;42.50;39.00;;;;;23.63;56.17;100557.64;110327;1264;22202;-49
2022/06/19 03:11:13;;;;;;;;;41.00;36.50;;;;;23.63;56.29;100558.30;110265;1264;18795;-50
2022/06/19 03:13:40;;;;;;;;;42.33;38.33;;;;;23.62;56.31;100553.84;110260;1264;19004;-49
2022/06/19 03:16:08;;;;;;;;;34.00;33.00;;;;;23.61;56.33;100566.15;110281;1264;19481;-49
2022/06/19 03:18:35;;;;;;;;;36.00;35.00;;;;;23.63;56.49;100567.32;110344;1264;22230;-49
2022/06/19 03:21:02;;;;;;;;;36.33;34.67;;;;;23.62;56.42;100569.12;110278;1264;18883;-49
2022/06/19 03:23:29;;;;;;;;;37.00;35.00;;;;;23.63;56.55;100562.09;110335;1265;19470;-50
2022/06/19 03:25:57;;;;;;;;;35.00;34.67;;;;;23.63;56.50;100554.42;110275;1265;20288;-48
2022/06/19 03:28:24;;;;;;;;;38.50;36.50;;;;;23.62;56.62;100554.67;110221;1264;23047;-50
2022/06/19 03:30:51;;;;;;;;;32.67;31.33;;;;;23.63;56.64;100554.39;110308;1265;19562;-49
2022/06/19 03:33:18;;;;;;;;;38.33;35.33;;;;;23.62;56.68;100552.48;110172;1264;19459;-50
2022/06/19 03:35:46;;;;;;;;;35.00;33.00;;;;;23.63;56.67;100551.86;110311;1265;18879;-50
2022/06/19 03:38:13;;;;;;;;;35.00;34.50;;;;;23.63;56.78;100546.44;110286;1264;19474;-49
2022/06/19 03:40:40;;;;;;;;;34.50;33.50;;;;;23.61;56.96;100546.28;110290;1264;18826;-49
2022/06/19 03:43:07;;;;;;;;;40.33;37.67;;;;;23.60;56.88;100545.42;110274;1265;18904;-52
2022/06/19 03:45:34;;;;;;;;;39.00;37.50;;;;;23.61;57.12;100543.52;110259;1265;19827;-54
2022/06/19 03:48:02;;;;;;;;;34.00;33.33;;;;;23.60;57.35;100540.58;110306;1264;18769;-51
2022/06/19 03:50:29;;;;;;;;;39.00;36.00;;;;;23.58;57.74;100539.59;110301;1263;19022;-48
2022/06/19 03:52:56;;;;;;;;;48.00;41.33;;;;;23.55;58.26;100537.23;110294;1264;19790;-49
2022/06/19 03:55:24;;;;;;;;;40.00;38.50;;;;;23.55;58.55;100543.84;110288;1264;18915;-50
2022/06/19 03:57:51;;;;;;;;;42.00;37.33;;;;;23.52;58.87;100537.08;110306;1264;18951;-49
2022/06/19 04:00:18;;;;;;;;;40.33;39.00;;;;;23.52;59.14;100534.16;110286;1264;19558;-49
2022/06/19 04:02:45;;;;;;;;;44.00;40.00;;;;;23.50;59.41;100528.77;110327;1264;18728;-50
2022/06/19 04:05:13;;;;;;;;;46.33;39.00;;;;;23.43;60.04;100529.07;110275;1264;18706;-49
2022/06/19 04:07:40;;;;;;;;;43.00;40.00;;;;;23.30;60.62;100521.64;110184;1264;24271;-48
2022/06/19 04:10:07;;;;;;;;;43.00;39.00;;;;;23.17;61.29;100516.41;110285;1264;18789;-49
2022/06/19 04:12:34;;;;;;;;;49.33;40.33;;;;;23.01;61.80;100504.42;110224;1265;19101;-51
2022/06/19 04:15:02;;;;;;;;;46.00;41.50;;;;;22.80;62.71;100492.27;110282;1264;19697;-49
2022/06/19 04:17:29;;;;;;;;;45.67;41.00;;;;;22.79;62.89;100492.08;110318;1264;19038;-51
2022/06/19 04:19:56;;;;;;;;;41.00;37.67;;;;;22.92;62.63;100496.21;110287;1264;18941;-50
2022/06/19 04:22:24;;;;;;;;;42.00;39.67;;;;;23.06;62.08;100490.90;110285;1264;22850;-49
2022/06/19 04:24:51;;;;;;;;;43.00;38.00;;;;;23.13;61.94;100489.25;110307;1263;20053;-49
2022/06/19 04:27:18;;;;;;;;;50.00;42.00;;;;;23.12;61.69;100489.88;110298;1265;18805;-49
2022/06/19 04:29:45;;;;;;;;;40.33;38.00;;;;;23.15;61.65;100490.77;110327;1264;22085;-50
2022/06/19 04:32:13;;;;;;;;;41.00;38.00;;;;;23.18;61.34;100494.84;110320;1265;18838;-49
2022/06/19 04:34:40;;;;;;;;;45.00;41.33;;;;;23.20;61.04;100489.59;110235;1265;19097;-50
2022/06/19 04:37:08;;;;;;;;;41.67;39.00;;;;;23.23;60.68;100482.33;110255;1264;19613;-48
2022/06/19 04:39:35;;;;;;;;;42.67;40.33;;;;;23.26;60.37;100476.34;110273;1264;18686;-49
2022/06/19 04:42:02;;;;;;;;;48.00;41.00;;;;;23.27;59.96;100476.48;110273;1264;18956;-50
2022/06/19 04:44:30;;;;;;;;;45.67;40.67;;;;;23.21;59.95;100476.95;110281;1264;19924;-50
2022/06/19 04:46:57;;;;;;;;;44.33;41.00;;;;;23.21;60.05;100467.61;110278;1264;19001;-51
2022/06/19 04:49:24;;;;;;;;;43.00;40.33;;;;;23.16;59.87;100466.09;110249;1264;21058;-51
2022/06/19 04:51:51;;;;;;;;;46.00;42.00;;;;;22.97;59.63;100463.25;110241;1264;22669;-52
2022/06/19 04:54:19;;;;;;;;;43.33;38.67;;;;;22.83;59.71;100463.00;110279;1264;19037;-46
2022/06/19 04:56:47;;;;;;;;;45.33;40.67;;;;;22.91;59.40;100460.42;110295;1265;18914;-52
2022/06/19 04:59:14;;;;;;;;;45.00;41.33;;;;;23.05;59.03;100461.34;110360;1265;19732;-48
2022/06/19 05:01:41;;;;;;;;;47.00;41.00;;;;;23.15;58.84;100465.11;110293;1264;19041;-51
2022/06/19 05:04:08;;;;;;;;;45.33;41.00;;;;;23.25;58.60;100465.19;110262;1264;18931;-52
2022/06/19 05:06:35;;;;;;;;;49.00;41.67;;;;;23.24;58.47;100465.86;110272;1264;22312;-50
2022/06/19 05:09:03;;;;;;;;;44.67;40.33;;;;;23.30;58.23;100460.05;110247;1265;22533;-46
2022/06/19 05:11:31;;;;;;;;;43.33;39.33;;;;;23.31;58.04;100452.18;110297;1264;19284;-47
2022/06/19 05:13:58;;;;;;;;;43.00;39.33;;;;;23.21;58.25;100446.70;110284;1263;22146;-51
2022/06/19 05:16:26;;;;;;;;;43.50;39.50;;;;;23.20;58.40;100441.18;110284;1264;22560;-49
2022/06/19 05:18:53;;;;;;;;;41.00;38.00;;;;;23.27;58.47;100436.98;110299;1265;18796;-50
2022/06/19 05:21:20;;;;;;;;;43.00;40.50;;;;;23.34;58.39;100428.43;110279;1264;20317;-52
2022/06/19 05:23:47;;;;;;;;;39.00;38.00;;;;;23.39;58.13;100424.55;110193;1265;18766;-50
2022/06/19 05:26:16;;;;;;;;;43.67;39.00;;;;;23.36;58.05;100429.58;110290;1264;19274;-51
2022/06/19 05:28:43;;;;;;;;;40.33;37.67;;;;;23.24;58.21;100434.46;110281;1265;19559;-50
2022/06/19 05:31:11;;;;;;;;;39.33;36.67;;;;;23.20;58.11;100429.66;110300;1265;18892;-50
2022/06/19 05:33:38;;;;;;;;;38.00;37.33;;;;;23.25;57.99;100431.23;110303;1264;18989;-50
2022/06/19 05:36:05;;;;;;;;;37.33;33.00;;;;;23.23;57.77;100435.48;110313;1264;20921;-49
2022/06/19 05:38:32;;;;;;;;;39.00;33.33;;;;;23.23;57.55;100428.61;110307;1264;19259;-52
2022/06/19 05:41:00;;;;;;;;;31.00;30.33;;;;;23.29;57.45;100425.75;110230;1264;18509;-50
2022/06/19 05:43:27;;;;;;;;;31.00;29.50;;;;;23.38;57.05;100426.02;110053;1264;334878;-48
2022/06/19 05:45:55;;;;;;;;;28.33;27.00;;;;;23.42;56.96;100425.49;110225;1264;18810;-48
2022/06/19 05:48:23;;;;;;;;;28.50;27.50;;;;;23.44;56.76;100424.08;110237;1264;19008;-50
2022/06/19 05:50:50;;;;;;;;;29.67;28.67;;;;;23.47;56.50;100426.78;110240;1265;21529;-48
2022/06/19 05:53:17;;;;;;;;;28.67;28.00;;;;;23.56;56.54;100428.39;110135;1264;20274;-50
2022/06/19 05:55:45;;;;;;;;;28.33;27.33;;;;;23.64;56.24;100424.41;110066;1264;19110;-51
2022/06/19 05:58:12;;;;;;;;;28.33;27.33;;;;;23.73;56.02;100411.56;110090;1264;19626;-49
2022/06/19 06:00:39;;;;;;;;;34.00;28.50;;;;;23.81;55.99;100399.21;110290;1265;21232;-48
2022/06/19 06:03:06;;;;;;;;;28.00;26.00;;;;;23.86;56.00;100393.77;110266;1265;18935;-49
2022/06/19 06:05:34;;;;;;;;;30.00;26.33;;;;;23.88;55.72;100389.73;110286;1264;22308;-51
2022/06/19 06:08:01;;;;;;;;;25.00;25.00;;;;;23.90;55.65;100390.92;110222;1264;22198;-52
2022/06/19 06:10:28;;;;;;;;;28.33;24.67;;;;;23.99;55.61;100384.92;110255;1264;19553;-51
2022/06/19 06:12:56;;;;;;;;;24.67;24.00;;;;;24.09;55.41;100386.63;110276;1264;19756;-49
2022/06/19 06:15:23;;;;;;;;;23.33;23.33;;;;;24.14;55.12;100382.71;110207;1265;18812;-50
2022/06/19 06:17:50;;;;;;;;;22.67;21.00;;;;;24.15;54.81;100381.55;110345;1264;18846;-50
2022/06/19 06:20:18;;;;;;;;;24.00;20.00;;;;;24.13;54.62;100378.09;110275;1264;19607;-50
2022/06/19 06:22:45;;;;;;;;;18.33;18.33;;;;;24.13;54.22;100369.65;110169;1264;18980;-57
2022/06/19 06:25:12;;;;;;;;;18.33;17.67;;;;;24.17;54.00;100365.65;110288;1264;18804;-50
2022/06/19 06:27:39;;;;;;;;;16.33;16.33;;;;;24.16;53.81;100363.43;110119;1264;19496;-51
2022/06/19 06:30:07;;;;;;;;;18.33;17.00;;;;;24.22;54.01;100356.23;110323;1264;18831;-51
2022/06/19 06:32:34;;;;;;;;;16.00;16.00;;;;;24.24;53.95;100351.34;110264;1264;22329;-49
2022/06/19 06:35:01;;;;;;;;;16.50;16.00;;;;;24.30;54.01;100351.10;110262;1263;20372;-49
2022/06/19 06:37:28;;;;;;;;;16.00;16.00;;;;;24.33;53.66;100354.02;110170;1263;18864;-52
2022/06/19 06:39:56;;;;;;;;;19.00;19.00;;;;;24.40;53.62;100358.04;110267;1265;22928;-50
2022/06/19 06:42:23;;;;;;;;;20.33;19.00;;;;;24.56;53.50;100360.73;110280;1264;19468;-50
2022/06/19 06:44:50;;;;;;;;;20.67;19.33;;;;;24.59;53.56;100362.63;110286;1265;18772;-49
2022/06/19 06:47:17;;;;;;;;;17.67;17.33;;;;;24.63;53.76;100367.78;110246;1264;18836;-48
2022/06/19 06:49:45;;;;;;;;;21.00;19.67;;;;;24.65;53.60;100364.79;110248;1265;23745;-49
2022/06/19 06:52:12;;;;;;;;;20.00;19.33;;;;;24.69;53.49;100355.80;110253;1264;22798;-50
2022/06/19 06:54:39;;;;;;;;;17.33;17.33;;;;;24.72;53.30;100351.91;110151;1265;20195;-50
2022/06/19 06:57:06;;;;;;;;;20.00;19.33;;;;;24.80;53.17;100347.35;110230;1264;20962;-48
2022/06/19 06:59:34;;;;;;;;;20.00;20.00;;;;;24.86;53.28;100345.91;110310;1264;18682;-49
2022/06/19 07:02:01;;;;;;;;;16.67;16.67;;;;;24.95;52.74;100340.40;110269;1264;18839;-50
2022/06/19 07:04:28;;;;;;;;;18.67;18.00;;;;;24.99;52.79;100337.02;110256;1264;19557;-50
2022/06/19 07:06:55;;;;;;;;;18.67;18.00;;;;;25.09;53.00;100333.36;110191;1263;18882;-50
2022/06/19 07:09:23;;;;;;;;;17.67;16.33;;;;;25.15;52.90;100329.84;110269;1265;19837;-51
2022/06/19 07:11:50;;;;;;;;;17.50;16.50;;;;;25.19;52.55;100324.52;110299;1265;19778;-52
2022/06/19 07:14:17;;;;;;;;;22.00;19.50;;;;;25.21;52.68;100324.46;110182;1264;20163;-50
2022/06/19 07:16:44;;;;;;;;;21.50;18.00;;;;;25.21;52.27;100317.25;110157;1264;23083;-51
2022/06/19 07:19:12;;;;;;;;;18.00;17.00;;;;;25.19;52.12;100308.90;110158;1264;21692;-50
2022/06/19 07:21:39;;;;;;;;;17.67;16.67;;;;;25.21;51.92;100301.42;110222;1264;18861;-49
2022/06/19 07:24:06;;;;;;;;;17.00;16.33;;;;;25.22;51.92;100300.67;110285;1264;21141;-51
2022/06/19 07:26:34;;;;;;;;;19.00;18.00;;;;;25.22;51.83;100295.90;110286;1264;21136;-51
2022/06/19 07:29:01;;;;;;;;;23.00;18.00;;;;;25.28;51.88;100284.86;110273;1264;18799;-50
2022/06/19 07:31:28;;;;;;;;;18.67;18.67;;;;;25.39;51.80;100280.84;110293;1264;18791;-50
2022/06/19 07:33:55;;;;;;;;;21.67;21.33;;;;;25.43;51.91;100269.84;110252;1264;20164;-50
2022/06/19 07:36:23;;;;;;;;;23.00;22.00;;;;;25.47;51.97;100265.81;110265;1264;20153;-49
2022/06/19 07:38:50;;;;;;;;;22.33;21.00;;;;;25.47;51.87;100260.20;110300;1264;18916;-50
2022/06/19 07:41:17;;;;;;;;;17.67;17.67;;;;;25.48;51.94;100255.59;110184;1264;19532;-47
2022/06/19 07:43:45;;;;;;;;;18.33;18.33;;;;;25.52;51.88;100247.21;110131;1264;19189;-51
2022/06/19 07:46:13;;;;;;;;;22.00;18.33;;;;;25.50;51.93;100242.52;110247;1264;21333;-51
2022/06/19 07:51:25;;;;;;;;;23.67;22.00;;;;;25.65;51.40;100231.42;110287;1263;18714;-51
2022/06/19 07:53:52;;;;;;;;;26.50;23.00;;;;;25.68;51.15;100219.61;110306;1264;21745;-51
2022/06/19 07:56:19;;;;;;;;;22.33;22.00;;;;;25.78;51.09;100215.31;110273;1264;19722;-49
2022/06/19 07:58:47;;;;;;;;;23.00;23.00;;;;;25.83;50.90;100213.59;110272;1264;18865;-50
2022/06/19 08:01:14;;;;;;;;;24.67;23.67;;;;;25.84;50.73;100218.05;110290;1264;18903;-50
2022/06/19 08:03:41;;;;;;;;;23.00;20.50;;;;;25.85;50.76;100216.23;110282;1264;19481;-52
2022/06/19 08:06:08;;;;;;;;;21.67;20.00;;;;;25.94;50.73;100219.52;110155;1264;19125;-55
2022/06/19 08:08:36;;;;;;;;;24.50;23.50;;;;;25.96;50.57;100215.20;110327;1264;18944;-51
2022/06/19 08:11:04;;;;;;;;;20.50;20.00;;;;;26.01;50.52;100213.50;110267;1265;19636;-50
2022/06/19 08:13:32;;;;;;;;;26.00;24.00;;;;;26.05;50.93;100210.90;110242;1265;19025;-51
2022/06/19 08:16:00;;;;;;;;;23.33;22.33;;;;;26.16;50.97;100211.56;110277;1264;18921;-51
2022/06/19 08:18:27;;;;;;;;;25.33;24.33;;;;;26.22;51.06;100206.02;110239;1264;19488;-51
2022/06/19 08:20:54;;;;;;;;;26.67;26.67;;;;;26.24;51.16;100211.40;110234;1263;18775;-50
2022/06/19 08:23:22;;;;;;;;;24.00;24.00;;;;;26.21;51.19;100208.77;110289;1264;18886;-50
2022/06/19 08:25:49;;;;;;;;;26.67;24.00;;;;;26.09;52.14;100211.67;110239;1264;19638;-51
2022/06/19 08:28:16;;;;;;;;;25.00;24.00;;;;;26.09;52.52;100202.88;110212;1264;18710;-50
2022/06/19 08:30:44;;;;;;;;;26.00;25.00;;;;;26.08;52.91;100200.39;110261;1264;18849;-48
2022/06/19 08:33:11;;;;;;;;;26.33;25.67;;;;;26.09;52.96;100196.63;110247;1263;19623;-47
2022/06/19 08:35:38;;;;;;;;;25.67;25.33;;;;;26.12;52.73;100198.27;110269;1265;19647;-49
2022/06/19 08:38:06;;;;;;;;;28.00;26.00;;;;;26.01;53.16;100190.92;110227;1264;18942;-50
2022/06/19 08:40:33;;;;;;;;;29.00;27.33;;;;;26.03;53.72;100184.86;110261;1264;22078;-49
2022/06/19 08:43:00;;;;;;;;;29.00;27.00;;;;;26.14;53.53;100183.65;110199;1265;18634;-50
2022/06/19 08:45:27;;;;;;;;;25.33;24.00;;;;;26.16;53.65;100178.56;110220;1265;18949;-49
2022/06/19 08:47:55;;;;;;;;;28.33;27.00;;;;;26.20;53.76;100175.82;110284;1265;19566;-50
2022/06/19 08:50:22;;;;;;;;;29.00;28.67;;;;;26.23;53.76;100174.55;110233;1265;19727;-49
2022/06/19 08:52:49;;;;;;;;;35.33;34.67;;;;;26.31;53.24;100170.30;110231;1263;18973;-49
2022/06/19 08:55:16;;;;;;;;;93.67;80.33;;;;;26.34;53.09;100169.80;110240;1264;19821;-49
2022/06/19 08:57:44;;;;;;;;;113.50;98.25;;;;;26.46;52.39;100168.73;110223;1264;18856;-51
2022/06/19 09:00:11;;;;;;;;;85.00;64.67;;;;;26.49;52.30;100166.86;110223;1264;18831;-51
2022/06/19 09:02:39;;;;;;;;;71.33;54.67;;;;;26.72;51.95;100162.77;110292;1265;19484;-50
2022/06/19 09:07:51;;;;;;;;;33.33;32.33;;;;;27.02;50.52;100156.85;110235;1264;23004;-52
2022/06/19 09:10:18;;;;;;;;;36.33;34.67;;;;;27.11;50.24;100152.71;110247;1264;20927;-50
2022/06/19 09:12:45;;;;;;;;;31.00;29.67;;;;;26.89;50.73;100147.43;110238;1264;18921;-49
2022/06/19 09:15:13;;;;;;;;;28.50;27.00;;;;;26.94;50.74;100138.58;110211;1264;19013;-48
2022/06/19 09:17:40;;;;;;;;;27.33;27.33;;;;;27.04;50.66;100134.76;110301;1264;19707;-50
2022/06/19 09:20:08;;;;;;;;;27.00;24.50;;;;;27.12;50.95;100129.21;110242;1264;18851;-51
2022/06/19 09:22:35;;;;;;;;;26.00;25.33;;;;;27.04;51.20;100125.23;110253;1265;18887;-50
2022/06/19 09:25:02;;;;;;;;;30.00;28.33;;;;;26.84;51.95;100123.73;110229;1264;19660;-50
2022/06/19 09:27:30;;;;;;;;;30.00;29.33;;;;;26.80;52.38;100119.21;110260;1264;18723;-49
2022/06/19 09:29:57;;;;;;;;;27.33;27.00;;;;;26.80;52.39;100116.64;110320;1264;18838;-51
2022/06/19 09:32:24;;;;;;;;;28.00;26.00;;;;;26.70;52.52;100111.95;110221;1263;33425;-49
2022/06/19 09:34:51;;;;;;;;;26.50;25.50;;;;;26.67;52.60;100109.77;110106;1264;20146;-51
2022/06/19 09:37:19;;;;;;;;;30.00;27.50;;;;;26.69;52.52;100106.16;110178;1264;19505;-51
2022/06/19 09:39:47;;;;;;;;;33.00;29.00;;;;;26.65;52.83;100105.11;110215;1264;22808;-50
2022/06/19 09:42:15;;;;;;;;;27.33;26.00;;;;;26.64;53.06;100102.27;110253;1265;22255;-49
2022/06/19 09:44:42;;;;;;;;;31.33;30.67;;;;;26.67;53.31;100095.65;110266;1265;20288;-48
2022/06/19 09:47:09;;;;;;;;;32.00;31.50;;;;;26.66;53.39;100091.88;110224;1264;21705;-50
2022/06/19 09:49:37;;;;;;;;;31.33;30.33;;;;;26.65;53.65;100086.25;110165;1263;18704;-52
2022/06/19 09:52:04;;;;;;;;;46.00;40.00;;;;;26.73;53.58;100084.89;110027;1264;22952;-49
2022/06/19 09:54:32;;;;;;;;;68.67;51.67;;;;;26.78;53.54;100079.57;110181;1264;20226;-53
2022/06/19 09:56:59;;;;;;;;;85.67;63.67;;;;;26.86;53.36;100075.57;110276;1264;18834;-49
2022/06/19 09:59:27;;;;;;;;;80.00;60.00;;;;;26.86;53.17;100073.27;110173;1264;22283;-49
2022/06/19 10:01:56;;;;;;;;;87.67;61.00;;;;;26.91;52.85;100066.95;110171;1263;19639;-51
2022/06/19 10:04:23;;;;;;;;;68.50;53.50;;;;;26.92;52.95;100061.48;110231;1264;18851;-49
2022/06/19 10:06:51;;;;;;;;;62.67;47.67;;;;;27.01;52.92;100061.92;110255;1264;18925;-54
2022/06/19 10:09:18;;;;;;;;;56.00;43.00;;;;;26.98;53.17;100058.16;110108;1265;19495;-55
2022/06/19 10:11:45;;;;;;;;;40.33;36.33;;;;;26.96;53.07;100052.83;110263;1264;18675;-51
2022/06/19 10:14:13;;;;;;;;;36.50;33.00;;;;;27.36;52.06;100050.31;110236;1264;18692;-49
2022/06/19 10:16:44;;;;;;;;;32.00;30.67;;;;;27.47;51.43;100044.75;110273;1264;19626;-52
2022/06/19 10:19:13;;;;;;;;;30.00;28.50;;;;;27.29;51.99;100038.92;110291;1263;18982;-50
2022/06/19 10:24:25;;;;;;;;;26.00;24.50;;;;;27.37;51.96;100033.08;110291;1264;19810;-50
2022/06/19 10:26:52;;;;;;;;;26.33;23.67;;;;;27.42;51.96;100037.42;110216;1264;18850;-51
2022/06/19 10:29:19;;;;;;;;;25.00;24.67;;;;;27.32;52.11;100031.89;110260;1264;24815;-51
2022/06/19 10:31:47;;;;;;;;;26.50;24.50;;;;;27.30;52.39;100033.23;110238;1264;19514;-51
2022/06/19 10:34:14;;;;;;;;;23.33;22.00;;;;;27.46;52.10;100030.16;110163;1264;22083;-49
2022/06/19 10:36:41;;;;;;;;;23.00;22.00;;;;;27.59;51.70;100028.35;110093;1262;18880;-49
2022/06/19 10:39:09;;;;;;;;;23.00;22.00;;;;;27.76;51.46;100020.56;110160;1264;19773;-50
2022/06/19 10:44:23;;;;;;;;;22.00;21.00;;;;;28.15;50.29;100008.85;110157;1264;20602;-49
2022/06/19 10:46:50;;;;;;;;;24.67;21.67;;;;;28.38;49.02;100010.90;110180;1264;19633;-49
2022/06/19 10:49:18;;;;;;;;;22.00;21.67;;;;;28.41;48.82;99999.79;110201;1264;18733;-48
2022/06/19 10:51:45;;;;;;;;;25.00;22.67;;;;;28.24;48.95;99992.91;110229;1264;18949;-48
2022/06/19 10:54:12;;;;;;;;;23.00;22.33;;;;;28.09;49.67;99983.34;110261;1264;21344;-48
2022/06/19 10:56:39;;;;;;;;;22.33;21.67;;;;;28.17;49.79;99980.69;110283;1265;18700;-48
2022/06/19 10:59:07;;;;;;;;;21.50;21.00;;;;;28.22;49.79;99971.92;110254;1265;19497;-50
2022/06/19 11:04:27;;;;;;;;;21.00;20.33;;;;;28.22;49.62;99971.42;109497;1270;19646;-48
2022/06/19 11:06:54;;;;;;;;;21.00;20.00;;;;;28.47;48.40;99968.09;109536;1269;18857;-48
2022/06/19 11:09:21;;;;;;;;;22.00;21.33;;;;;28.43;48.04;99964.48;109522;1270;21397;-47
2022/06/19 11:11:49;;;;;;;;;22.33;21.00;;;;;28.26;48.66;99970.35;109528;1270;18753;-47
2022/06/19 11:14:16;;;;;;;;;21.67;20.67;;;;;28.22;48.89;99964.75;109493;1270;21763;-48
2022/06/19 11:16:43;;;;;;;;;17.33;17.33;;;;;28.37;48.16;99959.62;109551;1270;27482;-47
2022/06/19 11:19:11;;;;;;;;;19.33;19.33;;;;;28.65;47.04;99955.13;109522;1270;18832;-47